ローマ/フィウミチーノ の空港の天気 - METARとTAF

ローマ・レオナルド・ダ・ビンチ国際空港 ( LIRF / FCO ) - イタリア ローマ
飛行場実況気象(Metar)
観測時間09/21 00:50 CEST (09/20 22:50 UTC)
風向・風速不定 2m/s
視程9000m
天気現象
少しの雲 雲底高度 910m
気温20℃
湿度94%
気圧1015hPa
METARLIRF 202250Z VRB03KT 9000 FEW030 20/19 Q1015 NOSIG
過去の天気等 Google飛行場航空写真 Wunderground天気予報

過去48時間のMETAR

飛行場予報(TAF)
発表時間: 9/20 19:00 CEST (9/20 17:00 UTC)
予報対象時間: 20日20時 CEST ~ 22日2時 CEST
風向・風速不定 3m/s
視程10km以上
全天の4割程度の雲 雲底高度 1520m
20日20時 CEST ~ 20日22時 CEST に一時的に
視程4000m
天気現象しゅう雨
21日11時 CEST ~ 21日13時 CEST に徐々に
風向・風速南 6m/s
21日19時 CEST ~ 21日21時 CEST に徐々に
風向・風速不定 3m/s
TAF LIRF 201700Z 2018/2124 VRB06KT 9999 SCT050
TEMPO 2018/2020 4000 SHRA
BECMG 2109/2111 18012KT
BECMG 2117/2119 VRB05KT